createdAt,value
2023-04-07T00:02:00.539Z,16.83
2023-04-07T00:05:03.485Z,16.02
2023-04-07T00:08:06.290Z,15.93
2023-04-07T00:11:09.949Z,15.60
2023-04-07T00:14:12.671Z,15.53
2023-04-07T00:17:15.750Z,15.50
2023-04-07T00:20:19.576Z,16.58
2023-04-07T00:23:22.803Z,16.63
2023-04-07T00:26:31.426Z,15.52
2023-04-07T00:29:34.305Z,16.50
2023-04-07T00:32:37.847Z,15.57
2023-04-07T00:35:40.944Z,17.02
2023-04-07T00:38:43.602Z,16.85
2023-04-07T00:41:46.933Z,15.80
2023-04-07T00:44:49.664Z,15.97
2023-04-07T00:47:52.358Z,16.50
2023-04-07T00:50:55.092Z,15.80
2023-04-07T00:53:57.616Z,16.30
2023-04-07T00:57:01.790Z,16.58
2023-04-07T01:00:06.812Z,16.77
2023-04-07T01:03:18.419Z,16.77
2023-04-07T01:06:26.892Z,16.60
2023-04-07T01:09:41.752Z,15.50
2023-04-07T01:13:23.037Z,16.10
2023-04-07T01:16:32.689Z,16.00
2023-04-07T01:20:08.426Z,15.53
2023-04-07T01:23:25.481Z,16.13
2023-04-07T01:26:33.690Z,15.50
2023-04-07T01:29:47.491Z,15.98
2023-04-07T01:32:53.192Z,14.97
2023-04-07T01:35:59.809Z,15.90
2023-04-07T01:39:03.047Z,15.15
2023-04-07T01:42:08.371Z,16.20
2023-04-07T01:45:12.372Z,15.60
2023-04-07T01:48:16.402Z,15.17
2023-04-07T01:51:21.811Z,15.13
2023-04-07T01:54:25.845Z,15.52
2023-04-07T01:57:29.242Z,14.80
2023-04-07T02:00:38.334Z,15.32
2023-04-07T02:04:02.545Z,15.27
2023-04-07T02:07:21.277Z,15.07
2023-04-07T02:10:29.653Z,14.93
2023-04-07T02:13:37.908Z,15.57
2023-04-07T02:16:42.256Z,14.93
2023-04-07T02:19:46.769Z,15.33
2023-04-07T02:22:49.750Z,14.83
2023-04-07T02:25:56.730Z,15.40
2023-04-07T02:29:01.518Z,15.70
2023-04-07T02:32:04.525Z,15.30
2023-04-07T02:35:10.184Z,15.27
2023-04-07T02:38:13.037Z,15.10
2023-04-07T02:41:16.058Z,14.80
2023-04-07T02:44:19.605Z,15.25
2023-04-07T02:47:23.074Z,15.50
2023-04-07T02:50:27.097Z,14.97
2023-04-07T02:53:32.660Z,15.37
2023-04-07T02:56:38.070Z,15.02
2023-04-07T02:59:41.720Z,15.20
2023-04-07T03:02:47.183Z,14.48
2023-04-07T03:05:51.499Z,14.70
2023-04-07T03:08:54.228Z,15.10
2023-04-07T03:11:57.090Z,15.50
2023-04-07T03:15:00.133Z,15.35
2023-04-07T03:18:02.964Z,15.25
2023-04-07T03:21:06.768Z,15.67
2023-04-07T03:24:09.773Z,15.77
2023-04-07T03:27:12.453Z,14.57
2023-04-07T03:30:20.903Z,15.82
2023-04-07T03:33:24.467Z,15.32
2023-04-07T03:36:31.858Z,16.03
2023-04-07T03:39:41.169Z,16.20
2023-04-07T03:42:57.700Z,15.60
2023-04-07T03:46:00.754Z,15.63
2023-04-07T03:49:03.543Z,16.73
2023-04-07T03:52:08.320Z,16.07
2023-04-07T03:55:11.237Z,15.60
2023-04-07T03:58:14.204Z,15.95
2023-04-07T04:01:18.572Z,14.05
2023-04-07T04:04:24.782Z,16.75
2023-04-07T04:07:28.182Z,15.30
2023-04-07T04:10:37.161Z,16.13
2023-04-07T04:13:39.892Z,15.38
2023-04-07T04:16:43.218Z,15.23
2023-04-07T04:20:00.106Z,16.00
2023-04-07T04:23:18.459Z,17.13
2023-04-07T04:26:26.017Z,15.70
2023-04-07T04:29:33.048Z,16.10
2023-04-07T04:32:38.360Z,16.13
2023-04-07T04:35:42.635Z,16.25
2023-04-07T04:38:48.755Z,15.40
2023-04-07T04:41:56.724Z,14.20
2023-04-07T04:45:07.294Z,15.93
2023-04-07T04:48:11.567Z,15.75
2023-04-07T04:51:14.339Z,15.30
2023-04-07T04:54:19.690Z,16.20
2023-04-07T04:57:23.032Z,16.63
2023-04-07T05:00:26.713Z,16.00
2023-04-07T05:03:35.522Z,15.77
2023-04-07T05:06:46.304Z,15.27
2023-04-07T05:09:52.016Z,15.87
2023-04-07T05:12:57.749Z,15.63
2023-04-07T05:16:01.276Z,15.85
2023-04-07T05:19:04.378Z,15.32
2023-04-07T05:22:07.804Z,14.85
2023-04-07T05:25:18.818Z,15.53
2023-04-07T05:28:24.663Z,15.67
2023-04-07T05:31:29.594Z,15.15
2023-04-07T05:34:35.195Z,15.77
2023-04-07T05:37:39.277Z,16.00
2023-04-07T05:40:43.104Z,15.40
2023-04-07T05:43:51.367Z,15.90
2023-04-07T05:46:55.530Z,16.75
2023-04-07T05:50:01.247Z,16.20
2023-04-07T05:53:04.817Z,16.00
2023-04-07T05:56:08.335Z,15.50
2023-04-07T05:59:23.282Z,16.17
2023-04-07T06:02:28.419Z,16.15
2023-04-07T06:05:32.040Z,16.25
2023-04-07T06:08:34.972Z,17.27
2023-04-07T06:11:37.731Z,16.37
2023-04-07T06:14:40.650Z,17.00
2023-04-07T06:17:48.806Z,16.48
2023-04-07T06:20:53.880Z,17.35
2023-04-07T06:23:56.677Z,16.92
2023-04-07T06:27:03.778Z,16.73
2023-04-07T06:30:07.266Z,17.17
2023-04-07T06:33:12.252Z,16.92
2023-04-07T06:36:16.619Z,18.45
2023-04-07T06:39:20.431Z,18.00
2023-04-07T06:42:23.279Z,17.70
2023-04-07T06:45:36.436Z,15.87
2023-04-07T06:48:39.013Z,16.13
2023-04-07T06:51:41.626Z,16.42
2023-04-07T06:54:44.861Z,17.67
2023-04-07T06:57:47.499Z,17.17
2023-04-07T07:00:50.472Z,16.37
2023-04-07T07:03:53.325Z,16.90
2023-04-07T07:06:56.205Z,16.88
2023-04-07T07:09:58.846Z,17.23
2023-04-07T07:13:02.244Z,17.10
2023-04-07T07:16:06.115Z,17.60
2023-04-07T07:19:09.628Z,17.10
2023-04-07T07:22:12.485Z,17.38
2023-04-07T07:25:15.144Z,16.65
2023-04-07T07:28:18.623Z,16.97
2023-04-07T07:31:21.837Z,16.63
2023-04-07T07:34:24.489Z,16.83
2023-04-07T07:37:28.061Z,15.73
2023-04-07T07:40:30.712Z,15.85
2023-04-07T07:43:33.492Z,16.23
2023-04-07T07:46:36.124Z,16.53
2023-04-07T07:49:38.968Z,16.42
2023-04-07T07:52:41.862Z,17.13
2023-04-07T07:55:46.157Z,15.85
2023-04-07T07:58:48.801Z,15.83
2023-04-07T08:01:51.593Z,15.70
2023-04-07T08:04:55.436Z,16.85
2023-04-07T08:07:58.201Z,16.33
2023-04-07T08:11:01.191Z,16.10
2023-04-07T08:14:03.984Z,15.30
2023-04-07T08:17:07.005Z,16.27
2023-04-07T08:20:11.861Z,15.07
2023-04-07T08:23:16.311Z,15.52
2023-04-07T08:26:18.949Z,16.38
2023-04-07T08:29:22.459Z,16.70
2023-04-07T08:32:25.141Z,16.30
2023-04-07T08:35:28.418Z,15.07
2023-04-07T08:38:31.514Z,16.23
2023-04-07T08:41:40.986Z,17.25
2023-04-07T08:44:45.115Z,17.60
2023-04-07T08:47:52.798Z,16.23
2023-04-07T08:50:57.447Z,17.75
2023-04-07T08:54:09.581Z,17.17
2023-04-07T08:57:13.425Z,17.38
2023-04-07T09:00:17.079Z,17.97
2023-04-07T09:03:21.237Z,16.67
2023-04-07T09:06:24.781Z,18.95
2023-04-07T09:09:27.653Z,17.60
2023-04-07T09:12:31.820Z,15.85
2023-04-07T09:15:36.768Z,16.90
2023-04-07T09:18:42.475Z,17.57
2023-04-07T09:21:50.506Z,16.27
2023-04-07T09:24:53.080Z,15.02
2023-04-07T09:28:00.178Z,12.60
2023-04-07T09:31:02.862Z,12.93
2023-04-07T09:34:25.039Z,13.93
2023-04-07T09:37:28.261Z,13.80
2023-04-07T09:40:32.794Z,15.07
2023-04-07T09:43:38.188Z,15.23
2023-04-07T09:46:54.130Z,15.80
2023-04-07T09:49:58.916Z,16.07
2023-04-07T09:53:03.698Z,16.10
2023-04-07T09:56:06.707Z,16.35
2023-04-07T09:59:10.738Z,15.55
2023-04-07T10:02:13.508Z,15.27
2023-04-07T10:05:17.774Z,15.93
2023-04-07T10:08:21.265Z,15.88
2023-04-07T10:11:23.938Z,15.32
2023-04-07T10:14:31.192Z,15.88
2023-04-07T10:17:36.766Z,15.90
2023-04-07T10:20:43.813Z,15.87
2023-04-07T10:23:59.955Z,15.18
2023-04-07T10:27:09.302Z,15.15
2023-04-07T10:30:18.742Z,14.32
2023-04-07T10:33:57.683Z,14.57
2023-04-07T10:37:16.964Z,13.43
2023-04-07T10:40:21.592Z,13.38
2023-04-07T10:43:42.183Z,12.35
2023-04-07T10:46:48.420Z,13.43
2023-04-07T10:50:15.723Z,13.50
2023-04-07T10:53:18.627Z,14.20
2023-04-07T10:56:21.682Z,13.32
2023-04-07T10:59:27.831Z,13.93
2023-04-07T11:02:32.718Z,12.32
2023-04-07T11:05:38.891Z,13.33
2023-04-07T11:08:43.317Z,13.37
2023-04-07T11:11:48.746Z,13.77
2023-04-07T11:14:53.878Z,12.40
2023-04-07T11:18:17.286Z,12.77
2023-04-07T11:21:20.567Z,12.10
2023-04-07T11:24:52.332Z,13.20
2023-04-07T11:27:54.976Z,14.02
2023-04-07T11:31:00.330Z,13.98
2023-04-07T11:34:05.339Z,14.80
2023-04-07T11:37:25.485Z,13.80
2023-04-07T11:40:37.255Z,14.00
2023-04-07T11:43:42.188Z,13.60
2023-04-07T11:46:58.602Z,14.52
2023-04-07T11:50:01.462Z,14.48
2023-04-07T11:53:04.704Z,13.77
2023-04-07T11:56:12.596Z,14.27
2023-04-07T11:59:26.982Z,14.43
2023-04-07T12:02:32.592Z,15.40
2023-04-07T12:05:45.449Z,15.65
2023-04-07T12:08:48.208Z,14.97
2023-04-07T12:11:50.916Z,14.70
2023-04-07T12:14:53.614Z,15.07
2023-04-07T12:17:56.230Z,14.93
2023-04-07T12:20:59.205Z,14.60
2023-04-07T12:24:02.472Z,15.90
2023-04-07T12:27:05.285Z,15.20
2023-04-07T12:30:08.646Z,16.08
2023-04-07T12:33:11.688Z,15.77
2023-04-07T12:36:14.514Z,16.10
2023-04-07T12:39:17.356Z,15.70
2023-04-07T12:42:20.211Z,16.07
2023-04-07T12:45:22.875Z,16.52
2023-04-07T12:48:27.557Z,16.60
2023-04-07T12:51:33.485Z,16.00
2023-04-07T12:54:36.044Z,16.03
2023-04-07T12:57:38.987Z,16.23
2023-04-07T13:00:42.613Z,16.40
2023-04-07T13:03:45.602Z,15.77
2023-04-07T13:06:48.199Z,15.85
2023-04-07T13:09:51.871Z,16.13
2023-04-07T13:12:55.368Z,17.20
2023-04-07T13:15:58.103Z,15.68
2023-04-07T13:19:00.774Z,16.30
2023-04-07T13:22:06.218Z,16.65
2023-04-07T13:25:09.837Z,16.60
2023-04-07T13:28:12.537Z,16.30
2023-04-07T13:31:16.335Z,16.50
2023-04-07T13:34:20.838Z,16.80
2023-04-07T13:37:23.552Z,16.42
2023-04-07T13:40:31.175Z,16.03
2023-04-07T13:43:33.685Z,16.83
2023-04-07T13:46:36.913Z,16.92
2023-04-07T13:49:40.414Z,16.77
2023-04-07T13:52:43.865Z,16.77
2023-04-07T13:55:47.508Z,17.03
2023-04-07T13:58:50.636Z,16.27
2023-04-07T14:01:53.763Z,16.90
2023-04-07T14:04:57.388Z,16.00
2023-04-07T14:07:59.996Z,16.05
2023-04-07T14:11:03.653Z,16.87
2023-04-07T14:14:06.703Z,16.90
2023-04-07T14:17:09.258Z,17.77
2023-04-07T14:20:12.917Z,17.98
2023-04-07T14:23:20.758Z,16.58
2023-04-07T14:26:33.847Z,17.03
2023-04-07T14:29:36.674Z,16.57
2023-04-07T14:32:39.933Z,16.65
2023-04-07T14:35:42.972Z,17.08
2023-04-07T14:38:45.604Z,17.38
2023-04-07T14:41:48.965Z,17.97
2023-04-07T14:44:51.491Z,17.63
2023-04-07T14:47:54.164Z,17.38
2023-04-07T14:51:08.168Z,17.70
2023-04-07T14:54:12.884Z,18.30
2023-04-07T14:57:17.202Z,18.97
2023-04-07T15:00:20.403Z,18.30
2023-04-07T15:03:23.179Z,17.67
2023-04-07T15:06:30.095Z,17.65
2023-04-07T15:09:32.796Z,17.98
2023-04-07T15:12:35.404Z,18.43
2023-04-07T15:15:38.874Z,18.57
2023-04-07T15:18:44.535Z,17.40
2023-04-07T15:21:47.298Z,17.70
2023-04-07T15:24:49.962Z,18.00
2023-04-07T15:27:52.742Z,17.13
2023-04-07T15:30:55.769Z,17.37
2023-04-07T15:33:58.891Z,18.38
2023-04-07T15:37:03.575Z,18.38
2023-04-07T15:40:07.587Z,16.65
2023-04-07T15:43:11.496Z,17.47
2023-04-07T15:46:15.467Z,17.97
2023-04-07T15:49:20.104Z,17.58
2023-04-07T15:52:24.162Z,17.20
2023-04-07T15:55:26.907Z,18.92
2023-04-07T15:58:31.080Z,18.73
2023-04-07T16:01:34.575Z,18.97
2023-04-07T16:04:37.428Z,17.70
2023-04-07T16:07:41.014Z,19.17
2023-04-07T16:10:43.973Z,18.27
2023-04-07T16:13:47.139Z,18.03
2023-04-07T16:16:53.741Z,18.20
2023-04-07T16:19:56.469Z,18.75
2023-04-07T16:22:59.094Z,19.08
2023-04-07T16:26:01.883Z,17.92
2023-04-07T16:29:04.823Z,18.63
2023-04-07T16:32:07.669Z,18.17
2023-04-07T16:35:11.789Z,18.23
2023-04-07T16:38:14.649Z,19.70
2023-04-07T16:41:17.212Z,19.10
2023-04-07T16:44:22.150Z,18.70
2023-04-07T16:47:28.631Z,18.40
2023-04-07T16:50:31.390Z,17.77
2023-04-07T16:53:34.042Z,18.65
2023-04-07T16:56:37.542Z,18.13
2023-04-07T16:59:41.083Z,18.50
2023-04-07T17:02:44.650Z,18.43
2023-04-07T17:05:48.393Z,18.42
2023-04-07T17:08:51.045Z,19.38
2023-04-07T17:11:53.689Z,18.67
2023-04-07T17:14:56.390Z,19.30
2023-04-07T17:17:59.846Z,19.17
2023-04-07T17:21:02.676Z,19.13
2023-04-07T17:24:06.792Z,19.90
2023-04-07T17:27:09.491Z,19.67
2023-04-07T17:30:13.359Z,20.00
2023-04-07T17:33:16.536Z,20.17
2023-04-07T17:36:19.507Z,19.50
2023-04-07T17:39:22.343Z,18.58
2023-04-07T17:42:24.935Z,18.30
2023-04-07T17:45:27.851Z,19.87
2023-04-07T17:48:33.500Z,18.27
2023-04-07T17:51:36.464Z,18.55
2023-04-07T17:54:39.288Z,17.75
2023-04-07T17:57:42.121Z,17.50
2023-04-07T18:00:45.093Z,19.27
2023-04-07T18:03:48.574Z,17.23
2023-04-07T18:06:51.586Z,17.60
2023-04-07T18:09:54.494Z,17.98
2023-04-07T18:12:58.584Z,18.73
2023-04-07T18:16:01.228Z,17.20
2023-04-07T18:19:03.891Z,17.67
2023-04-07T18:22:06.653Z,19.05
2023-04-07T18:25:10.096Z,18.00
2023-04-07T18:28:12.736Z,18.13
2023-04-07T18:31:15.901Z,17.60
2023-04-07T18:34:18.444Z,19.00
2023-04-07T18:37:22.270Z,18.30
2023-04-07T18:40:25.088Z,17.88
2023-04-07T18:43:28.037Z,17.08
2023-04-07T18:46:31.157Z,17.17
2023-04-07T18:49:34.889Z,16.90
2023-04-07T18:52:37.781Z,16.92
2023-04-07T18:55:40.495Z,16.83
2023-04-07T18:58:45.970Z,17.30
2023-04-07T19:01:48.724Z,17.30
2023-04-07T19:04:51.456Z,17.50
2023-04-07T19:07:54.164Z,17.00
2023-04-07T19:10:56.991Z,17.70
2023-04-07T19:14:00.004Z,18.25
2023-04-07T19:17:03.587Z,18.17
2023-04-07T19:20:07.373Z,17.40
2023-04-07T19:23:10.007Z,17.85
2023-04-07T19:26:14.198Z,18.23
2023-04-07T19:29:17.461Z,18.08
2023-04-07T19:32:20.578Z,18.80
2023-04-07T19:35:23.312Z,18.03
2023-04-07T19:38:26.097Z,18.80
2023-04-07T19:41:29.450Z,19.80
2023-04-07T19:44:32.010Z,19.35
2023-04-07T19:47:35.972Z,19.80
2023-04-07T19:50:43.589Z,20.10
2023-04-07T19:53:46.998Z,19.55
2023-04-07T19:56:50.793Z,19.05
2023-04-07T19:59:53.523Z,19.20
2023-04-07T20:02:56.958Z,18.57
2023-04-07T20:05:59.778Z,19.17
2023-04-07T20:09:02.670Z,19.38
2023-04-07T20:12:06.235Z,19.98
2023-04-07T20:15:09.357Z,19.60
2023-04-07T20:18:12.845Z,19.63
2023-04-07T20:21:16.421Z,20.13
2023-04-07T20:24:19.634Z,20.75
2023-04-07T20:27:22.114Z,20.70
2023-04-07T20:30:27.048Z,19.25
2023-04-07T20:33:30.434Z,21.97
2023-04-07T20:36:33.659Z,21.50
2023-04-07T20:39:37.719Z,20.67
2023-04-07T20:42:41.302Z,20.77
2023-04-07T20:45:46.163Z,20.08
2023-04-07T20:48:50.071Z,20.90
2023-04-07T20:51:53.654Z,20.70
2023-04-07T20:54:56.769Z,19.10
2023-04-07T20:58:00.520Z,18.83
2023-04-07T21:01:03.165Z,19.55
2023-04-07T21:04:06.526Z,18.70
2023-04-07T21:07:10.524Z,18.90
2023-04-07T21:10:14.625Z,17.85
2023-04-07T21:13:18.901Z,18.63
2023-04-07T21:16:21.848Z,18.55
2023-04-07T21:19:25.331Z,19.23
2023-04-07T21:22:29.662Z,20.10
2023-04-07T21:25:32.345Z,18.13
2023-04-07T21:28:35.934Z,17.90
2023-04-07T21:31:39.403Z,16.17
2023-04-07T21:34:42.204Z,17.17
2023-04-07T21:37:46.211Z,16.00
2023-04-07T21:40:49.262Z,16.60
2023-04-07T21:43:52.239Z,14.77
2023-04-07T21:46:54.939Z,16.27
2023-04-07T21:49:58.000Z,16.50
2023-04-07T21:53:00.683Z,16.07
2023-04-07T21:56:04.472Z,15.82
2023-04-07T21:59:07.330Z,16.58
2023-04-07T22:02:12.905Z,16.23
2023-04-07T22:05:17.583Z,17.13
2023-04-07T22:08:20.558Z,16.37
2023-04-07T22:11:23.664Z,16.60
2023-04-07T22:14:26.923Z,16.25
2023-04-07T22:17:29.628Z,16.17
2023-04-07T22:20:34.513Z,16.70
2023-04-07T22:23:37.823Z,17.23
2023-04-07T22:26:40.515Z,15.90
2023-04-07T22:29:43.841Z,17.60
2023-04-07T22:32:48.030Z,16.10
2023-04-07T22:35:50.887Z,17.43
2023-04-07T22:38:54.383Z,16.80
2023-04-07T22:41:57.412Z,16.27
2023-04-07T22:45:01.038Z,16.27
2023-04-07T22:48:04.497Z,15.88
2023-04-07T22:51:07.638Z,16.13
2023-04-07T22:54:10.151Z,15.67
2023-04-07T22:57:13.337Z,15.55
2023-04-07T23:00:18.024Z,15.32
2023-04-07T23:03:21.126Z,14.00
2023-04-07T23:06:23.928Z,11.77
2023-04-07T23:09:27.662Z,12.37
2023-04-07T23:12:30.268Z,13.50
2023-04-07T23:15:35.864Z,12.52
2023-04-07T23:18:38.524Z,12.85
2023-04-07T23:21:41.575Z,14.07
2023-04-07T23:24:44.070Z,14.07
2023-04-07T23:27:47.360Z,13.68
2023-04-07T23:30:54.274Z,14.27
2023-04-07T23:33:59.147Z,13.27
2023-04-07T23:37:02.273Z,13.27
2023-04-07T23:40:06.633Z,13.53
2023-04-07T23:43:10.909Z,12.88
2023-04-07T23:46:14.477Z,14.07
2023-04-07T23:49:17.224Z,13.07
2023-04-07T23:52:21.953Z,13.17
2023-04-07T23:55:24.700Z,12.50
2023-04-07T23:58:28.098Z,12.88
